sensor_id;sensor_type;location;lat;lon;timestamp;P1;durP1;ratioP1;P2;durP2;ratioP2
69323;SDS011;56470;47.350;8.718;2023-03-04T00:02:18;33.50;;;13.10;;
69323;SDS011;56470;47.350;8.718;2023-03-04T00:04:44;29.83;;;12.40;;
69323;SDS011;56470;47.350;8.718;2023-03-04T00:07:09;35.70;;;12.60;;
69323;SDS011;56470;47.350;8.718;2023-03-04T00:09:36;34.50;;;12.23;;
69323;SDS011;56470;47.350;8.718;2023-03-04T00:12:01;27.65;;;10.95;;
69323;SDS011;56470;47.350;8.718;2023-03-04T00:14:27;34.63;;;11.87;;
69323;SDS011;56470;47.350;8.718;2023-03-04T00:16:52;34.13;;;13.10;;
69323;SDS011;56470;47.350;8.718;2023-03-04T00:19:18;27.17;;;12.00;;
69323;SDS011;56470;47.350;8.718;2023-03-04T00:21:43;33.50;;;12.00;;
69323;SDS011;56470;47.350;8.718;2023-03-04T00:24:08;31.42;;;12.95;;
69323;SDS011;56470;47.350;8.718;2023-03-04T00:26:34;31.80;;;12.53;;
69323;SDS011;56470;47.350;8.718;2023-03-04T00:28:59;33.27;;;12.47;;
69323;SDS011;56470;47.350;8.718;2023-03-04T00:31:24;30.37;;;12.43;;
69323;SDS011;56470;47.350;8.718;2023-03-04T00:33:49;33.97;;;13.03;;
69323;SDS011;56470;47.350;8.718;2023-03-04T00:36:15;33.83;;;11.80;;
69323;SDS011;56470;47.350;8.718;2023-03-04T00:38:40;34.50;;;13.77;;
69323;SDS011;56470;47.350;8.718;2023-03-04T00:41:05;30.52;;;11.30;;
69323;SDS011;56470;47.350;8.718;2023-03-04T00:43:31;32.90;;;12.50;;
69323;SDS011;56470;47.350;8.718;2023-03-04T00:45:56;29.37;;;12.07;;
69323;SDS011;56470;47.350;8.718;2023-03-04T00:48:22;28.33;;;11.53;;
69323;SDS011;56470;47.350;8.718;2023-03-04T00:50:47;34.28;;;13.60;;
69323;SDS011;56470;47.350;8.718;2023-03-04T00:53:15;27.57;;;12.00;;
69323;SDS011;56470;47.350;8.718;2023-03-04T00:55:41;34.00;;;12.93;;
69323;SDS011;56470;47.350;8.718;2023-03-04T00:58:06;34.27;;;13.37;;
69323;SDS011;56470;47.350;8.718;2023-03-04T01:00:31;34.20;;;13.27;;
69323;SDS011;56470;47.350;8.718;2023-03-04T01:02:57;28.98;;;11.48;;
69323;SDS011;56470;47.350;8.718;2023-03-04T01:05:22;34.63;;;12.03;;
69323;SDS011;56470;47.350;8.718;2023-03-04T01:07:48;32.60;;;12.27;;
69323;SDS011;56470;47.350;8.718;2023-03-04T01:10:13;35.93;;;12.00;;
69323;SDS011;56470;47.350;8.718;2023-03-04T01:12:39;35.15;;;12.93;;
69323;SDS011;56470;47.350;8.718;2023-03-04T01:15:05;33.08;;;11.80;;
69323;SDS011;56470;47.350;8.718;2023-03-04T01:17:32;30.50;;;12.05;;
69323;SDS011;56470;47.350;8.718;2023-03-04T01:19:57;37.27;;;12.70;;
69323;SDS011;56470;47.350;8.718;2023-03-04T01:22:23;27.40;;;11.10;;
69323;SDS011;56470;47.350;8.718;2023-03-04T01:24:48;31.87;;;12.80;;
69323;SDS011;56470;47.350;8.718;2023-03-04T01:27:13;36.73;;;13.27;;
69323;SDS011;56470;47.350;8.718;2023-03-04T01:29:39;28.55;;;11.35;;
69323;SDS011;56470;47.350;8.718;2023-03-04T01:32:04;27.13;;;11.97;;
69323;SDS011;56470;47.350;8.718;2023-03-04T01:34:29;30.87;;;12.73;;
69323;SDS011;56470;47.350;8.718;2023-03-04T01:36:55;30.30;;;11.97;;
69323;SDS011;56470;47.350;8.718;2023-03-04T01:39:20;29.13;;;12.77;;
69323;SDS011;56470;47.350;8.718;2023-03-04T01:41:46;29.77;;;11.80;;
69323;SDS011;56470;47.350;8.718;2023-03-04T01:44:11;30.40;;;11.23;;
69323;SDS011;56470;47.350;8.718;2023-03-04T01:46:37;27.90;;;11.33;;
69323;SDS011;56470;47.350;8.718;2023-03-04T01:49:12;27.90;;;11.27;;
69323;SDS011;56470;47.350;8.718;2023-03-04T01:51:39;30.35;;;11.60;;
69323;SDS011;56470;47.350;8.718;2023-03-04T01:54:13;29.42;;;11.23;;
69323;SDS011;56470;47.350;8.718;2023-03-04T01:56:38;32.07;;;11.97;;
69323;SDS011;56470;47.350;8.718;2023-03-04T01:59:12;29.45;;;13.13;;
69323;SDS011;56470;47.350;8.718;2023-03-04T02:01:37;31.35;;;11.82;;
69323;SDS011;56470;47.350;8.718;2023-03-04T02:04:04;26.13;;;10.37;;
69323;SDS011;56470;47.350;8.718;2023-03-04T02:06:30;35.35;;;13.90;;
69323;SDS011;56470;47.350;8.718;2023-03-04T02:08:56;31.02;;;13.20;;
69323;SDS011;56470;47.350;8.718;2023-03-04T02:11:21;30.33;;;11.73;;
69323;SDS011;56470;47.350;8.718;2023-03-04T02:13:47;33.50;;;11.93;;
69323;SDS011;56470;47.350;8.718;2023-03-04T02:16:12;29.45;;;12.35;;
69323;SDS011;56470;47.350;8.718;2023-03-04T02:18:37;32.03;;;11.93;;
69323;SDS011;56470;47.350;8.718;2023-03-04T02:26:42;42.50;;;15.23;;
69323;SDS011;56470;47.350;8.718;2023-03-04T02:29:10;38.67;;;14.60;;
69323;SDS011;56470;47.350;8.718;2023-03-04T02:31:38;33.63;;;13.25;;
69323;SDS011;56470;47.350;8.718;2023-03-04T02:34:06;32.25;;;11.77;;
69323;SDS011;56470;47.350;8.718;2023-03-04T02:36:39;34.92;;;13.60;;
69323;SDS011;56470;47.350;8.718;2023-03-04T02:42:09;31.92;;;13.25;;
69323;SDS011;56470;47.350;8.718;2023-03-04T02:44:36;34.05;;;13.45;;
69323;SDS011;56470;47.350;8.718;2023-03-04T02:47:08;34.53;;;13.23;;
69323;SDS011;56470;47.350;8.718;2023-03-04T02:49:35;39.83;;;15.75;;
69323;SDS011;56470;47.350;8.718;2023-03-04T02:52:06;36.17;;;13.27;;
69323;SDS011;56470;47.350;8.718;2023-03-04T02:54:33;35.05;;;13.48;;
69323;SDS011;56470;47.350;8.718;2023-03-04T02:57:00;32.53;;;13.25;;
69323;SDS011;56470;47.350;8.718;2023-03-04T02:59:27;32.42;;;13.15;;
69323;SDS011;56470;47.350;8.718;2023-03-04T03:01:52;33.33;;;12.20;;
69323;SDS011;56470;47.350;8.718;2023-03-04T03:04:18;32.97;;;12.27;;
69323;SDS011;56470;47.350;8.718;2023-03-04T03:06:45;36.88;;;13.95;;
69323;SDS011;56470;47.350;8.718;2023-03-04T03:09:10;29.93;;;11.17;;
69323;SDS011;56470;47.350;8.718;2023-03-04T03:11:35;35.80;;;12.70;;
69323;SDS011;56470;47.350;8.718;2023-03-04T03:14:01;31.73;;;11.77;;
69323;SDS011;56470;47.350;8.718;2023-03-04T03:16:27;34.23;;;11.77;;
69323;SDS011;56470;47.350;8.718;2023-03-04T03:18:52;27.02;;;11.85;;
69323;SDS011;56470;47.350;8.718;2023-03-04T03:21:17;31.57;;;12.97;;
69323;SDS011;56470;47.350;8.718;2023-03-04T03:23:43;32.20;;;13.10;;
69323;SDS011;56470;47.350;8.718;2023-03-04T03:26:08;32.60;;;12.67;;
69323;SDS011;56470;47.350;8.718;2023-03-04T03:28:34;30.50;;;12.03;;
69323;SDS011;56470;47.350;8.718;2023-03-04T03:30:59;31.15;;;13.75;;
69323;SDS011;56470;47.350;8.718;2023-03-04T03:33:24;29.47;;;11.70;;
69323;SDS011;56470;47.350;8.718;2023-03-04T03:35:50;33.90;;;12.50;;
69323;SDS011;56470;47.350;8.718;2023-03-04T03:38:15;32.80;;;13.33;;
69323;SDS011;56470;47.350;8.718;2023-03-04T03:40:41;27.98;;;11.10;;
69323;SDS011;56470;47.350;8.718;2023-03-04T03:43:06;28.47;;;11.83;;
69323;SDS011;56470;47.350;8.718;2023-03-04T03:45:31;25.60;;;11.10;;
69323;SDS011;56470;47.350;8.718;2023-03-04T03:47:57;36.00;;;13.47;;
69323;SDS011;56470;47.350;8.718;2023-03-04T03:50:22;23.50;;;10.63;;
69323;SDS011;56470;47.350;8.718;2023-03-04T03:52:48;28.23;;;10.90;;
69323;SDS011;56470;47.350;8.718;2023-03-04T03:55:13;24.07;;;11.00;;
69323;SDS011;56470;47.350;8.718;2023-03-04T03:57:38;25.17;;;9.73;;
69323;SDS011;56470;47.350;8.718;2023-03-04T04:00:04;28.93;;;11.40;;
69323;SDS011;56470;47.350;8.718;2023-03-04T04:02:31;35.00;;;14.68;;
69323;SDS011;56470;47.350;8.718;2023-03-04T04:04:56;35.30;;;13.93;;
69323;SDS011;56470;47.350;8.718;2023-03-04T04:07:21;33.63;;;12.17;;
69323;SDS011;56470;47.350;8.718;2023-03-04T04:09:47;28.38;;;11.23;;
69323;SDS011;56470;47.350;8.718;2023-03-04T04:12:13;25.13;;;11.07;;
69323;SDS011;56470;47.350;8.718;2023-03-04T04:14:40;28.30;;;10.00;;
69323;SDS011;56470;47.350;8.718;2023-03-04T04:17:06;32.00;;;11.90;;
69323;SDS011;56470;47.350;8.718;2023-03-04T04:19:31;33.28;;;12.55;;
69323;SDS011;56470;47.350;8.718;2023-03-04T04:21:57;29.10;;;12.20;;
69323;SDS011;56470;47.350;8.718;2023-03-04T04:24:22;25.43;;;10.63;;
69323;SDS011;56470;47.350;8.718;2023-03-04T04:26:47;27.13;;;10.77;;
69323;SDS011;56470;47.350;8.718;2023-03-04T04:29:13;25.50;;;10.13;;
69323;SDS011;56470;47.350;8.718;2023-03-04T04:31:39;24.70;;;10.65;;
69323;SDS011;56470;47.350;8.718;2023-03-04T04:34:04;29.83;;;11.57;;
69323;SDS011;56470;47.350;8.718;2023-03-04T04:36:30;30.47;;;13.47;;
69323;SDS011;56470;47.350;8.718;2023-03-04T04:38:55;33.07;;;12.00;;
69323;SDS011;56470;47.350;8.718;2023-03-04T04:41:22;26.83;;;10.70;;
69323;SDS011;56470;47.350;8.718;2023-03-04T04:43:49;28.27;;;11.98;;
69323;SDS011;56470;47.350;8.718;2023-03-04T04:46:15;26.67;;;11.07;;
69323;SDS011;56470;47.350;8.718;2023-03-04T04:48:41;31.20;;;13.40;;
69323;SDS011;56470;47.350;8.718;2023-03-04T04:51:06;30.87;;;12.37;;
69323;SDS011;56470;47.350;8.718;2023-03-04T04:53:32;32.53;;;12.10;;
69323;SDS011;56470;47.350;8.718;2023-03-04T04:55:57;31.20;;;12.32;;
69323;SDS011;56470;47.350;8.718;2023-03-04T04:58:22;28.83;;;11.53;;
69323;SDS011;56470;47.350;8.718;2023-03-04T05:00:48;35.13;;;12.43;;
69323;SDS011;56470;47.350;8.718;2023-03-04T05:03:13;32.67;;;14.20;;
69323;SDS011;56470;47.350;8.718;2023-03-04T05:05:39;30.97;;;12.73;;
69323;SDS011;56470;47.350;8.718;2023-03-04T05:08:04;27.73;;;11.30;;
69323;SDS011;56470;47.350;8.718;2023-03-04T05:10:29;29.83;;;11.10;;
69323;SDS011;56470;47.350;8.718;2023-03-04T05:12:55;29.63;;;11.57;;
69323;SDS011;56470;47.350;8.718;2023-03-04T05:15:20;31.98;;;11.90;;
69323;SDS011;56470;47.350;8.718;2023-03-04T05:17:46;28.80;;;10.93;;
69323;SDS011;56470;47.350;8.718;2023-03-04T05:20:11;33.13;;;13.57;;
69323;SDS011;56470;47.350;8.718;2023-03-04T05:22:37;26.20;;;11.90;;
69323;SDS011;56470;47.350;8.718;2023-03-04T05:25:02;31.25;;;12.15;;
69323;SDS011;56470;47.350;8.718;2023-03-04T05:27:27;31.20;;;12.53;;
69323;SDS011;56470;47.350;8.718;2023-03-04T05:29:53;31.77;;;12.80;;
69323;SDS011;56470;47.350;8.718;2023-03-04T05:32:19;27.13;;;12.98;;
69323;SDS011;56470;47.350;8.718;2023-03-04T05:34:45;35.13;;;12.17;;
69323;SDS011;56470;47.350;8.718;2023-03-04T05:37:10;31.43;;;12.77;;
69323;SDS011;56470;47.350;8.718;2023-03-04T05:39:36;30.75;;;12.45;;
69323;SDS011;56470;47.350;8.718;2023-03-04T05:42:01;36.73;;;13.13;;
69323;SDS011;56470;47.350;8.718;2023-03-04T05:44:26;27.70;;;11.87;;
69323;SDS011;56470;47.350;8.718;2023-03-04T05:46:52;30.37;;;12.37;;
69323;SDS011;56470;47.350;8.718;2023-03-04T05:49:17;29.47;;;11.33;;
69323;SDS011;56470;47.350;8.718;2023-03-04T05:51:42;28.90;;;12.37;;
69323;SDS011;56470;47.350;8.718;2023-03-04T05:54:08;34.38;;;12.77;;
69323;SDS011;56470;47.350;8.718;2023-03-04T05:56:33;33.70;;;13.17;;
69323;SDS011;56470;47.350;8.718;2023-03-04T05:58:59;31.13;;;12.33;;
69323;SDS011;56470;47.350;8.718;2023-03-04T06:01:24;33.75;;;13.45;;
69323;SDS011;56470;47.350;8.718;2023-03-04T06:03:50;29.83;;;13.03;;
69323;SDS011;56470;47.350;8.718;2023-03-04T06:06:15;34.53;;;12.03;;
69323;SDS011;56470;47.350;8.718;2023-03-04T06:08:41;25.33;;;11.02;;
69323;SDS011;56470;47.350;8.718;2023-03-04T06:11:06;27.43;;;10.10;;
69323;SDS011;56470;47.350;8.718;2023-03-04T06:13:32;24.67;;;9.90;;
69323;SDS011;56470;47.350;8.718;2023-03-04T06:15:58;27.20;;;9.68;;
69323;SDS011;56470;47.350;8.718;2023-03-04T06:18:24;34.57;;;12.37;;
69323;SDS011;56470;47.350;8.718;2023-03-04T06:20:50;27.25;;;11.60;;
69323;SDS011;56470;47.350;8.718;2023-03-04T06:23:20;24.80;;;11.15;;
69323;SDS011;56470;47.350;8.718;2023-03-04T06:25:45;18.93;;;10.03;;
69323;SDS011;56470;47.350;8.718;2023-03-04T06:28:10;24.10;;;10.07;;
69323;SDS011;56470;47.350;8.718;2023-03-04T06:30:36;24.93;;;10.23;;
69323;SDS011;56470;47.350;8.718;2023-03-04T06:33:01;29.70;;;10.95;;
69323;SDS011;56470;47.350;8.718;2023-03-04T06:35:27;28.07;;;11.30;;
69323;SDS011;56470;47.350;8.718;2023-03-04T06:37:52;33.07;;;13.07;;
69323;SDS011;56470;47.350;8.718;2023-03-04T06:40:17;35.43;;;14.30;;
69323;SDS011;56470;47.350;8.718;2023-03-04T06:42:43;40.90;;;16.00;;
69323;SDS011;56470;47.350;8.718;2023-03-04T06:45:08;44.15;;;17.95;;
69323;SDS011;56470;47.350;8.718;2023-03-04T06:47:34;42.43;;;17.10;;
69323;SDS011;56470;47.350;8.718;2023-03-04T06:50:00;36.30;;;14.50;;
69323;SDS011;56470;47.350;8.718;2023-03-04T06:52:27;36.30;;;13.63;;
69323;SDS011;56470;47.350;8.718;2023-03-04T06:54:52;37.47;;;13.85;;
69323;SDS011;56470;47.350;8.718;2023-03-04T06:57:17;37.73;;;14.90;;
69323;SDS011;56470;47.350;8.718;2023-03-04T06:59:42;29.87;;;13.17;;
69323;SDS011;56470;47.350;8.718;2023-03-04T07:02:09;33.47;;;13.90;;
69323;SDS011;56470;47.350;8.718;2023-03-04T07:04:36;33.85;;;14.60;;
69323;SDS011;56470;47.350;8.718;2023-03-04T07:07:01;30.73;;;13.53;;
69323;SDS011;56470;47.350;8.718;2023-03-04T07:09:26;32.03;;;12.90;;
69323;SDS011;56470;47.350;8.718;2023-03-04T07:11:52;31.27;;;13.53;;
69323;SDS011;56470;47.350;8.718;2023-03-04T07:14:17;37.67;;;14.57;;
69323;SDS011;56470;47.350;8.718;2023-03-04T07:16:45;40.97;;;14.35;;
69323;SDS011;56470;47.350;8.718;2023-03-04T07:19:19;36.60;;;14.10;;
69323;SDS011;56470;47.350;8.718;2023-03-04T07:21:45;34.17;;;14.13;;
69323;SDS011;56470;47.350;8.718;2023-03-04T07:24:12;36.33;;;14.45;;
69323;SDS011;56470;47.350;8.718;2023-03-04T07:26:37;37.87;;;14.80;;
69323;SDS011;56470;47.350;8.718;2023-03-04T07:29:03;33.97;;;15.00;;
69323;SDS011;56470;47.350;8.718;2023-03-04T07:31:30;37.10;;;14.63;;
69323;SDS011;56470;47.350;8.718;2023-03-04T07:33:58;41.55;;;14.85;;
69323;SDS011;56470;47.350;8.718;2023-03-04T07:36:26;38.13;;;13.70;;
69323;SDS011;56470;47.350;8.718;2023-03-04T07:38:52;35.78;;;14.45;;
69323;SDS011;56470;47.350;8.718;2023-03-04T07:41:19;33.13;;;13.23;;
69323;SDS011;56470;47.350;8.718;2023-03-04T07:43:46;39.67;;;15.63;;
69323;SDS011;56470;47.350;8.718;2023-03-04T07:46:11;37.33;;;14.63;;
69323;SDS011;56470;47.350;8.718;2023-03-04T07:48:37;38.70;;;15.27;;
69323;SDS011;56470;47.350;8.718;2023-03-04T07:51:07;37.80;;;15.70;;
69323;SDS011;56470;47.350;8.718;2023-03-04T07:53:41;44.33;;;17.55;;
69323;SDS011;56470;47.350;8.718;2023-03-04T07:56:09;36.42;;;14.88;;
69323;SDS011;56470;47.350;8.718;2023-03-04T07:58:36;34.03;;;14.25;;
69323;SDS011;56470;47.350;8.718;2023-03-04T08:01:07;33.30;;;13.60;;
69323;SDS011;56470;47.350;8.718;2023-03-04T08:03:36;37.55;;;15.02;;
69323;SDS011;56470;47.350;8.718;2023-03-04T08:06:06;42.60;;;16.17;;
69323;SDS011;56470;47.350;8.718;2023-03-04T08:08:32;32.88;;;14.60;;
69323;SDS011;56470;47.350;8.718;2023-03-04T08:10:58;35.30;;;15.52;;
69323;SDS011;56470;47.350;8.718;2023-03-04T08:13:23;40.27;;;15.33;;
69323;SDS011;56470;47.350;8.718;2023-03-04T08:15:48;40.27;;;16.17;;
69323;SDS011;56470;47.350;8.718;2023-03-04T08:18:14;42.07;;;17.40;;
69323;SDS011;56470;47.350;8.718;2023-03-04T08:20:42;38.30;;;16.93;;
69323;SDS011;56470;47.350;8.718;2023-03-04T08:23:09;38.15;;;16.13;;
69323;SDS011;56470;47.350;8.718;2023-03-04T08:25:37;38.13;;;17.33;;
69323;SDS011;56470;47.350;8.718;2023-03-04T08:28:04;40.65;;;17.80;;
69323;SDS011;56470;47.350;8.718;2023-03-04T08:30:30;37.22;;;15.90;;
69323;SDS011;56470;47.350;8.718;2023-03-04T08:32:55;41.03;;;17.57;;
69323;SDS011;56470;47.350;8.718;2023-03-04T08:35:20;40.80;;;17.17;;
69323;SDS011;56470;47.350;8.718;2023-03-04T08:37:46;39.10;;;16.43;;
69323;SDS011;56470;47.350;8.718;2023-03-04T08:40:11;36.00;;;17.37;;
69323;SDS011;56470;47.350;8.718;2023-03-04T08:42:37;39.28;;;17.30;;
69323;SDS011;56470;47.350;8.718;2023-03-04T08:45:03;40.07;;;17.67;;
69323;SDS011;56470;47.350;8.718;2023-03-04T08:47:28;42.65;;;17.75;;
69323;SDS011;56470;47.350;8.718;2023-03-04T08:49:54;42.20;;;18.00;;
69323;SDS011;56470;47.350;8.718;2023-03-04T08:52:19;46.10;;;17.93;;
69323;SDS011;56470;47.350;8.718;2023-03-04T08:54:44;37.77;;;16.73;;
69323;SDS011;56470;47.350;8.718;2023-03-04T08:57:10;36.53;;;15.37;;
69323;SDS011;56470;47.350;8.718;2023-03-04T08:59:35;40.83;;;18.30;;
69323;SDS011;56470;47.350;8.718;2023-03-04T09:02:00;37.63;;;16.57;;
69323;SDS011;56470;47.350;8.718;2023-03-04T09:04:26;41.90;;;18.50;;
69323;SDS011;56470;47.350;8.718;2023-03-04T09:06:51;41.83;;;17.90;;
69323;SDS011;56470;47.350;8.718;2023-03-04T09:09:16;41.40;;;17.20;;
69323;SDS011;56470;47.350;8.718;2023-03-04T09:11:42;36.80;;;15.02;;
69323;SDS011;56470;47.350;8.718;2023-03-04T09:14:07;40.47;;;17.37;;
69323;SDS011;56470;47.350;8.718;2023-03-04T09:16:32;33.63;;;15.13;;
69323;SDS011;56470;47.350;8.718;2023-03-04T09:18:58;42.60;;;17.87;;
69323;SDS011;56470;47.350;8.718;2023-03-04T09:21:24;39.03;;;16.20;;
69323;SDS011;56470;47.350;8.718;2023-03-04T09:23:50;43.27;;;19.30;;
69323;SDS011;56470;47.350;8.718;2023-03-04T09:26:20;42.23;;;17.47;;
69323;SDS011;56470;47.350;8.718;2023-03-04T09:28:54;35.08;;;14.55;;
69323;SDS011;56470;47.350;8.718;2023-03-04T09:31:24;39.80;;;17.95;;
69323;SDS011;56470;47.350;8.718;2023-03-04T09:33:50;38.17;;;17.57;;
69323;SDS011;56470;47.350;8.718;2023-03-04T09:36:16;39.42;;;15.68;;
69323;SDS011;56470;47.350;8.718;2023-03-04T09:38:42;38.15;;;17.83;;
69323;SDS011;56470;47.350;8.718;2023-03-04T09:41:19;36.77;;;16.00;;
69323;SDS011;56470;47.350;8.718;2023-03-04T09:43:48;38.50;;;14.65;;
69323;SDS011;56470;47.350;8.718;2023-03-04T09:46:21;37.28;;;16.35;;
69323;SDS011;56470;47.350;8.718;2023-03-04T09:48:56;39.38;;;15.68;;
69323;SDS011;56470;47.350;8.718;2023-03-04T09:54:04;37.47;;;17.73;;
69323;SDS011;56470;47.350;8.718;2023-03-04T09:56:32;30.25;;;14.10;;
69323;SDS011;56470;47.350;8.718;2023-03-04T10:06:56;33.13;;;14.82;;
69323;SDS011;56470;47.350;8.718;2023-03-04T10:09:23;32.47;;;15.13;;
69323;SDS011;56470;47.350;8.718;2023-03-04T10:11:52;35.97;;;14.40;;
69323;SDS011;56470;47.350;8.718;2023-03-04T10:17:04;37.60;;;15.75;;
69323;SDS011;56470;47.350;8.718;2023-03-04T10:22:31;25.58;;;11.02;;
69323;SDS011;56470;47.350;8.718;2023-03-04T10:25:19;26.33;;;12.03;;
69323;SDS011;56470;47.350;8.718;2023-03-04T10:27:54;27.65;;;11.88;;
69323;SDS011;56470;47.350;8.718;2023-03-04T10:30:31;28.98;;;13.40;;
69323;SDS011;56470;47.350;8.718;2023-03-04T10:33:20;33.22;;;14.55;;
69323;SDS011;56470;47.350;8.718;2023-03-04T10:38:25;32.20;;;14.53;;
69323;SDS011;56470;47.350;8.718;2023-03-04T10:40:54;24.52;;;10.23;;
69323;SDS011;56470;47.350;8.718;2023-03-04T10:43:21;25.75;;;10.25;;
69323;SDS011;56470;47.350;8.718;2023-03-04T10:45:47;31.17;;;12.37;;
69323;SDS011;56470;47.350;8.718;2023-03-04T10:48:21;29.95;;;12.77;;
69323;SDS011;56470;47.350;8.718;2023-03-04T10:50:48;26.30;;;11.70;;
69323;SDS011;56470;47.350;8.718;2023-03-04T11:01:58;24.63;;;10.60;;
69323;SDS011;56470;47.350;8.718;2023-03-04T11:04:26;25.77;;;11.70;;
69323;SDS011;56470;47.350;8.718;2023-03-04T11:06:56;22.67;;;10.15;;
69323;SDS011;56470;47.350;8.718;2023-03-04T11:09:30;25.33;;;10.63;;
69323;SDS011;56470;47.350;8.718;2023-03-04T11:11:59;25.95;;;10.48;;
69323;SDS011;56470;47.350;8.718;2023-03-04T11:16:56;26.30;;;10.83;;
69323;SDS011;56470;47.350;8.718;2023-03-04T11:19:23;15.50;;;7.13;;
69323;SDS011;56470;47.350;8.718;2023-03-04T11:21:55;27.25;;;12.40;;
69323;SDS011;56470;47.350;8.718;2023-03-04T11:24:23;27.40;;;11.80;;
69323;SDS011;56470;47.350;8.718;2023-03-04T11:26:53;33.50;;;13.95;;
69323;SDS011;56470;47.350;8.718;2023-03-04T11:29:24;32.03;;;12.87;;
69323;SDS011;56470;47.350;8.718;2023-03-04T11:32:08;30.95;;;14.63;;
69323;SDS011;56470;47.350;8.718;2023-03-04T11:42:40;29.90;;;12.97;;
69323;SDS011;56470;47.350;8.718;2023-03-04T11:46:10;34.58;;;14.73;;
69323;SDS011;56470;47.350;8.718;2023-03-04T11:56:58;21.97;;;10.20;;
69323;SDS011;56470;47.350;8.718;2023-03-04T11:59:28;28.88;;;13.30;;
69323;SDS011;56470;47.350;8.718;2023-03-04T12:07:42;36.78;;;14.88;;
69323;SDS011;56470;47.350;8.718;2023-03-04T12:12:48;19.33;;;9.13;;
69323;SDS011;56470;47.350;8.718;2023-03-04T12:20:55;20.48;;;6.90;;
69323;SDS011;56470;47.350;8.718;2023-03-04T12:23:32;35.70;;;15.03;;
69323;SDS011;56470;47.350;8.718;2023-03-04T12:26:32;28.85;;;12.40;;
69323;SDS011;56470;47.350;8.718;2023-03-04T12:31:42;38.38;;;14.95;;
69323;SDS011;56470;47.350;8.718;2023-03-04T12:44:59;35.58;;;14.65;;
69323;SDS011;56470;47.350;8.718;2023-03-04T12:56:22;24.63;;;11.57;;
69323;SDS011;56470;47.350;8.718;2023-03-04T12:58:52;31.85;;;14.35;;
69323;SDS011;56470;47.350;8.718;2023-03-04T13:01:26;34.75;;;14.52;;
69323;SDS011;56470;47.350;8.718;2023-03-04T13:09:33;38.67;;;16.23;;
69323;SDS011;56470;47.350;8.718;2023-03-04T13:12:10;35.08;;;15.75;;
69323;SDS011;56470;47.350;8.718;2023-03-04T13:14:40;37.92;;;16.25;;
69323;SDS011;56470;47.350;8.718;2023-03-04T13:20:24;33.42;;;15.02;;
69323;SDS011;56470;47.350;8.718;2023-03-04T13:23:18;36.25;;;15.63;;
69323;SDS011;56470;47.350;8.718;2023-03-04T13:28:22;39.25;;;16.67;;
69323;SDS011;56470;47.350;8.718;2023-03-04T13:35:59;33.65;;;13.88;;
69323;SDS011;56470;47.350;8.718;2023-03-04T13:41:15;41.45;;;17.25;;
69323;SDS011;56470;47.350;8.718;2023-03-04T13:43:52;38.43;;;16.83;;
69323;SDS011;56470;47.350;8.718;2023-03-04T13:51:31;41.65;;;17.58;;
69323;SDS011;56470;47.350;8.718;2023-03-04T13:59:12;35.63;;;15.10;;
69323;SDS011;56470;47.350;8.718;2023-03-04T14:02:07;36.25;;;14.60;;
69323;SDS011;56470;47.350;8.718;2023-03-04T14:04:42;30.20;;;12.75;;
69323;SDS011;56470;47.350;8.718;2023-03-04T14:07:19;36.30;;;16.10;;
69323;SDS011;56470;47.350;8.718;2023-03-04T14:12:19;37.63;;;15.53;;
69323;SDS011;56470;47.350;8.718;2023-03-04T14:14:49;35.67;;;15.43;;
69323;SDS011;56470;47.350;8.718;2023-03-04T14:17:18;38.13;;;17.13;;
69323;SDS011;56470;47.350;8.718;2023-03-04T14:19:47;38.72;;;15.25;;
69323;SDS011;56470;47.350;8.718;2023-03-04T14:27:26;36.97;;;15.57;;
69323;SDS011;56470;47.350;8.718;2023-03-04T14:29:54;33.85;;;14.88;;
69323;SDS011;56470;47.350;8.718;2023-03-04T14:32:24;33.97;;;14.65;;
69323;SDS011;56470;47.350;8.718;2023-03-04T14:34:50;35.60;;;14.57;;
69323;SDS011;56470;47.350;8.718;2023-03-04T14:37:23;16.53;;;8.60;;
69323;SDS011;56470;47.350;8.718;2023-03-04T14:40:17;33.75;;;14.23;;
69323;SDS011;56470;47.350;8.718;2023-03-04T14:42:46;38.30;;;15.30;;
69323;SDS011;56470;47.350;8.718;2023-03-04T14:45:13;33.38;;;14.90;;
69323;SDS011;56470;47.350;8.718;2023-03-04T14:47:41;35.35;;;14.68;;
69323;SDS011;56470;47.350;8.718;2023-03-04T14:50:18;30.93;;;14.40;;
69323;SDS011;56470;47.350;8.718;2023-03-04T14:52:48;33.22;;;15.13;;
69323;SDS011;56470;47.350;8.718;2023-03-04T14:55:24;36.55;;;15.90;;
69323;SDS011;56470;47.350;8.718;2023-03-04T14:57:52;34.03;;;14.50;;
69323;SDS011;56470;47.350;8.718;2023-03-04T15:00:38;37.58;;;14.95;;
69323;SDS011;56470;47.350;8.718;2023-03-04T15:03:28;36.67;;;14.07;;
69323;SDS011;56470;47.350;8.718;2023-03-04T15:05:53;31.95;;;14.48;;
69323;SDS011;56470;47.350;8.718;2023-03-04T15:08:28;36.25;;;15.02;;
69323;SDS011;56470;47.350;8.718;2023-03-04T15:11:00;35.88;;;14.98;;
69323;SDS011;56470;47.350;8.718;2023-03-04T15:13:46;36.35;;;16.20;;
69323;SDS011;56470;47.350;8.718;2023-03-04T15:16:15;33.47;;;14.60;;
69323;SDS011;56470;47.350;8.718;2023-03-04T15:19:02;34.83;;;15.52;;
69323;SDS011;56470;47.350;8.718;2023-03-04T15:21:33;34.22;;;15.13;;
69323;SDS011;56470;47.350;8.718;2023-03-04T15:24:04;36.38;;;15.38;;
69323;SDS011;56470;47.350;8.718;2023-03-04T15:26:32;33.80;;;16.48;;
69323;SDS011;56470;47.350;8.718;2023-03-04T15:29:02;32.50;;;14.60;;
69323;SDS011;56470;47.350;8.718;2023-03-04T15:31:34;34.25;;;15.32;;
69323;SDS011;56470;47.350;8.718;2023-03-04T15:33:59;33.80;;;15.77;;
69323;SDS011;56470;47.350;8.718;2023-03-04T15:36:25;33.83;;;15.37;;
69323;SDS011;56470;47.350;8.718;2023-03-04T15:38:51;34.38;;;14.90;;
69323;SDS011;56470;47.350;8.718;2023-03-04T15:41:21;36.83;;;15.33;;
69323;SDS011;56470;47.350;8.718;2023-03-04T15:43:49;31.85;;;13.52;;
69323;SDS011;56470;47.350;8.718;2023-03-04T15:46:14;32.58;;;15.07;;
69323;SDS011;56470;47.350;8.718;2023-03-04T15:48:40;34.90;;;14.30;;
69323;SDS011;56470;47.350;8.718;2023-03-04T15:51:06;36.70;;;15.83;;
69323;SDS011;56470;47.350;8.718;2023-03-04T15:53:45;32.85;;;14.10;;
69323;SDS011;56470;47.350;8.718;2023-03-04T15:56:16;32.05;;;15.60;;
69323;SDS011;56470;47.350;8.718;2023-03-04T15:58:45;33.20;;;13.73;;
69323;SDS011;56470;47.350;8.718;2023-03-04T16:01:15;30.50;;;14.07;;
69323;SDS011;56470;47.350;8.718;2023-03-04T16:03:41;34.43;;;12.90;;
69323;SDS011;56470;47.350;8.718;2023-03-04T16:06:08;33.22;;;13.32;;
69323;SDS011;56470;47.350;8.718;2023-03-04T16:08:35;29.45;;;13.50;;
69323;SDS011;56470;47.350;8.718;2023-03-04T16:11:00;32.57;;;13.77;;
69323;SDS011;56470;47.350;8.718;2023-03-04T16:13:25;36.63;;;15.47;;
69323;SDS011;56470;47.350;8.718;2023-03-04T16:15:51;36.97;;;15.73;;
69323;SDS011;56470;47.350;8.718;2023-03-04T16:18:16;34.10;;;15.52;;
69323;SDS011;56470;47.350;8.718;2023-03-04T16:20:42;36.03;;;15.23;;
69323;SDS011;56470;47.350;8.718;2023-03-04T16:23:12;33.65;;;14.80;;
69323;SDS011;56470;47.350;8.718;2023-03-04T16:25:43;30.47;;;13.77;;
69323;SDS011;56470;47.350;8.718;2023-03-04T16:28:10;34.17;;;14.65;;
69323;SDS011;56470;47.350;8.718;2023-03-04T16:30:36;35.35;;;14.75;;
69323;SDS011;56470;47.350;8.718;2023-03-04T16:33:01;31.33;;;14.17;;
69323;SDS011;56470;47.350;8.718;2023-03-04T16:35:26;35.93;;;14.63;;